Airfield :
LOGIN :

Register | Disclaimer

   EN    FR    IT 

 










Legend :    VFR   Marginal VFR   IFR   Intensive IFR   Very Intensive IFR
Visi :
Ceiling :
>= 8 km
>= 3000ft
5 to 8 km
1000 to 3000 ft
1500m to 5 km
500 to 1000 ft
800 to 1500m
200 to 500 ft
< 800m
< 200 ft
Symbols :   Thunderstorms  Fog  Heavy snow  Heavy precipitations  Wind > 20 kt
SIGMETs :     Misc.  Thunderstorms  Icing  Turbulence  Mountain Waves  Volcanic Ashes






- Airport Elevation : 233 ft
- IATA code : REU


LERS - Reus Tarragona

CURRENT METAR :
  • 180800Z VRB02KT CAVOK 06/02 Q1030

EXPIRED METARs :
  • 180730Z VRB01KT CAVOK 06/01 Q1030
  • 180700Z 01006KT 350V050 CAVOK 08/01 Q1030
  • 180630Z 02005KT 320V060 CAVOK 07/01 Q1030
  • 180600Z 34004KT 300V010 CAVOK 08/01 Q1030
  • 180530Z AUTO VRB01KT CAVOK 07/01 Q1030

TAF TAF LERS
Valid from the 18 at 03:00 until the 19 at 03:00 UTC


180200Z 1803/1903 VRB04KT 9999 FEW040 TX14/1813Z TN02/1806Z
TEMPO 1803/1806 27010KT
TEMPO 1813/1817 20010KT



MET'MAP, your aeronautical weather chart ! - Copyright ORBIFLY December 2007 - Disclaimer

ORBIFLY MET'MAP TEAM :

Programming & Development : Alexandra Zaïnal
Concept & original design : Baudouin d'Aumeries
Assistance for programming : Marc-Olivier Méhu
Technical & hardware support : Manuel Goepfert

Contact : metmap@orbifly.com




SOURCES & CREDITS :

   NOAA